createdAt,value
2016-10-24T00:00:11.763Z,998.53
2016-10-24T00:00:33.536Z,998.51
2016-10-24T00:00:55.270Z,998.56
2016-10-24T00:01:17.006Z,998.55
2016-10-24T00:01:43.512Z,998.56
2016-10-24T00:02:05.248Z,998.50
2016-10-24T00:02:26.985Z,998.51
2016-10-24T00:02:48.714Z,998.57
2016-10-24T00:03:10.431Z,998.52
2016-10-24T00:03:32.153Z,998.51
2016-10-24T00:03:53.879Z,998.50
2016-10-24T00:04:15.602Z,998.53
2016-10-24T00:04:37.322Z,998.56
2016-10-24T00:04:59.073Z,998.53
2016-10-24T00:05:20.797Z,998.53
2016-10-24T00:05:42.530Z,998.53
2016-10-24T00:06:04.256Z,998.50
2016-10-24T00:06:26.002Z,998.52
2016-10-24T00:06:47.729Z,998.52
2016-10-24T00:07:09.448Z,998.51
2016-10-24T00:07:31.174Z,998.44
2016-10-24T00:07:52.951Z,998.46
2016-10-24T00:08:14.685Z,998.45
2016-10-24T00:08:36.419Z,998.47
2016-10-24T00:08:58.185Z,998.45
2016-10-24T00:09:19.929Z,998.40
2016-10-24T00:09:46.537Z,998.48
2016-10-24T00:10:08.287Z,998.46
2016-10-24T00:10:30.060Z,998.51
2016-10-24T00:10:51.777Z,998.49
2016-10-24T00:11:13.609Z,998.48
2016-10-24T00:11:35.351Z,998.49
2016-10-24T00:11:57.067Z,998.48
2016-10-24T00:12:18.889Z,998.52
2016-10-24T00:12:40.663Z,998.52
2016-10-24T00:13:02.477Z,998.54
2016-10-24T00:13:24.231Z,998.56
2016-10-24T00:13:46.077Z,998.56
2016-10-24T00:14:07.819Z,998.60
2016-10-24T00:14:29.541Z,998.54
2016-10-24T00:14:51.264Z,998.57
2016-10-24T00:15:13.007Z,998.59
2016-10-24T00:15:34.733Z,998.59
2016-10-24T00:15:56.465Z,998.57
2016-10-24T00:16:18.180Z,998.58
2016-10-24T00:16:39.952Z,998.60
2016-10-24T00:17:01.670Z,998.60
2016-10-24T00:17:23.387Z,998.59
2016-10-24T00:17:45.112Z,998.56
2016-10-24T00:18:06.855Z,998.53
2016-10-24T00:18:28.662Z,998.62
2016-10-24T00:18:50.393Z,998.58
2016-10-24T00:19:12.138Z,998.61
2016-10-24T00:19:33.881Z,998.62
2016-10-24T00:19:55.602Z,998.64
2016-10-24T00:20:18.357Z,998.63
2016-10-24T00:20:40.098Z,998.64
2016-10-24T00:21:01.830Z,998.58
2016-10-24T00:21:23.547Z,998.65
2016-10-24T00:21:45.267Z,998.66
2016-10-24T00:22:07.000Z,998.57
2016-10-24T00:22:28.757Z,998.66
2016-10-24T00:22:50.530Z,998.68
2016-10-24T00:23:12.261Z,998.68
2016-10-24T00:23:33.997Z,998.64
2016-10-24T00:23:55.719Z,998.64
2016-10-24T00:24:17.441Z,998.62
2016-10-24T00:24:39.171Z,998.63
2016-10-24T00:25:00.903Z,998.56
2016-10-24T00:25:22.628Z,998.63
2016-10-24T00:25:44.381Z,998.73
2016-10-24T00:26:06.122Z,998.66
2016-10-24T00:26:27.841Z,998.67
2016-10-24T00:26:49.560Z,998.71
2016-10-24T00:27:11.304Z,998.69
2016-10-24T00:27:33.029Z,998.69
2016-10-24T00:27:54.777Z,998.73
2016-10-24T00:28:16.524Z,998.68
2016-10-24T00:28:38.251Z,998.65
2016-10-24T00:28:59.982Z,998.66
2016-10-24T00:29:21.759Z,998.68
2016-10-24T00:29:43.510Z,998.69
2016-10-24T00:30:05.236Z,998.68
2016-10-24T00:30:26.975Z,998.61
2016-10-24T00:30:48.697Z,998.69
2016-10-24T00:31:10.416Z,998.63
2016-10-24T00:31:32.185Z,998.64
2016-10-24T00:31:54.030Z,998.69
2016-10-24T00:32:15.811Z,998.71
2016-10-24T00:32:37.570Z,998.71
2016-10-24T00:32:59.310Z,998.67
2016-10-24T00:33:21.056Z,998.75
2016-10-24T00:33:42.777Z,998.76
2016-10-24T00:34:04.536Z,998.79
2016-10-24T00:34:26.255Z,998.82
2016-10-24T00:34:47.984Z,998.73
2016-10-24T00:35:09.798Z,998.80
2016-10-24T00:35:31.669Z,998.78
2016-10-24T00:35:53.469Z,998.80
2016-10-24T00:36:15.296Z,998.83
2016-10-24T00:36:37.009Z,998.78
2016-10-24T00:36:58.732Z,998.78
2016-10-24T00:37:20.471Z,998.77
2016-10-24T00:37:42.235Z,998.85
2016-10-24T00:38:04.010Z,998.82
2016-10-24T00:38:25.791Z,998.80
2016-10-24T00:38:47.538Z,998.86
2016-10-24T00:39:09.269Z,998.80
2016-10-24T00:39:31.011Z,998.86
2016-10-24T00:39:52.748Z,998.86
2016-10-24T00:40:14.479Z,998.83
2016-10-24T00:40:36.253Z,998.84
2016-10-24T00:40:57.990Z,998.83
2016-10-24T00:41:19.796Z,998.83
2016-10-24T00:41:41.572Z,998.79
2016-10-24T00:42:03.328Z,998.79
2016-10-24T00:42:25.049Z,998.76
2016-10-24T00:42:46.776Z,998.81
2016-10-24T00:43:08.616Z,998.75
2016-10-24T00:43:30.365Z,998.74
2016-10-24T00:43:52.163Z,998.77
2016-10-24T00:44:13.909Z,998.71
2016-10-24T00:44:35.706Z,998.71
2016-10-24T00:44:57.449Z,998.74
2016-10-24T00:45:19.189Z,998.69
2016-10-24T00:45:40.909Z,998.66
2016-10-24T00:46:02.633Z,998.65
2016-10-24T00:46:24.356Z,998.66
2016-10-24T00:46:46.082Z,998.69
2016-10-24T00:47:07.798Z,998.74
2016-10-24T00:47:29.558Z,998.73
2016-10-24T00:47:51.284Z,998.73
2016-10-24T00:48:13.068Z,998.70
2016-10-24T00:48:34.808Z,998.70
2016-10-24T00:48:56.536Z,998.76
2016-10-24T00:49:18.279Z,998.73
2016-10-24T00:49:40.040Z,998.75
2016-10-24T00:50:01.787Z,998.68
2016-10-24T00:50:23.519Z,998.73
2016-10-24T00:50:45.247Z,998.72
2016-10-24T00:51:06.970Z,998.71
2016-10-24T00:51:28.736Z,998.75
2016-10-24T00:51:50.461Z,998.73
2016-10-24T00:52:12.293Z,998.71
2016-10-24T00:52:34.073Z,998.65
2016-10-24T00:52:55.805Z,998.72
2016-10-24T00:53:17.519Z,998.70
2016-10-24T00:53:39.235Z,998.70
2016-10-24T00:54:01.008Z,998.64
2016-10-24T00:54:22.767Z,998.63
2016-10-24T00:54:44.538Z,998.66
2016-10-24T00:55:06.305Z,998.63
2016-10-24T00:55:28.082Z,998.61
2016-10-24T00:55:49.864Z,998.61
2016-10-24T00:56:11.583Z,998.67
2016-10-24T00:56:33.307Z,998.69
2016-10-24T00:56:55.024Z,998.62
2016-10-24T00:57:16.741Z,998.64
2016-10-24T00:57:38.483Z,998.66
2016-10-24T00:58:00.220Z,998.66
2016-10-24T00:58:21.955Z,998.61
2016-10-24T00:58:43.688Z,998.68
2016-10-24T00:59:05.434Z,998.63
2016-10-24T00:59:27.171Z,998.61
2016-10-24T00:59:48.890Z,998.60
2016-10-24T01:00:10.697Z,998.60
2016-10-24T01:00:32.484Z,998.56
2016-10-24T01:00:54.238Z,998.62
2016-10-24T01:01:15.973Z,998.57
2016-10-24T01:01:37.703Z,998.51
2016-10-24T01:01:59.440Z,998.51
2016-10-24T01:02:21.175Z,998.54
2016-10-24T01:02:42.934Z,998.49
2016-10-24T01:03:04.684Z,998.52
2016-10-24T01:03:26.402Z,998.54
2016-10-24T01:03:48.123Z,998.52
2016-10-24T01:04:09.837Z,998.50
2016-10-24T01:04:31.581Z,998.58
2016-10-24T01:04:53.317Z,998.69
2016-10-24T01:05:15.056Z,998.59
2016-10-24T01:05:36.788Z,998.58
2016-10-24T01:05:58.628Z,998.54
2016-10-24T01:06:20.388Z,998.63
2016-10-24T01:06:42.207Z,998.65
2016-10-24T01:07:03.988Z,998.63
2016-10-24T01:07:25.727Z,998.63
2016-10-24T01:07:47.444Z,998.64
2016-10-24T01:08:09.222Z,998.68
2016-10-24T01:08:30.963Z,998.59
2016-10-24T01:08:52.742Z,998.64
2016-10-24T01:09:14.471Z,998.63
2016-10-24T01:10:02.740Z,998.63
2016-10-24T01:10:24.513Z,998.59
2016-10-24T01:10:46.236Z,998.65
2016-10-24T01:11:07.960Z,998.66
2016-10-24T01:11:29.736Z,998.59
2016-10-24T01:11:51.506Z,998.62
2016-10-24T01:12:13.236Z,998.61
2016-10-24T01:12:34.956Z,998.63
2016-10-24T01:12:56.672Z,998.63
2016-10-24T01:13:18.528Z,998.63
2016-10-24T01:13:40.245Z,998.64
2016-10-24T01:14:02.000Z,998.58
2016-10-24T01:14:24.738Z,998.61
2016-10-24T01:14:46.457Z,998.62
2016-10-24T01:15:08.198Z,998.67
2016-10-24T01:15:30.023Z,998.64
2016-10-24T01:15:51.754Z,998.64
2016-10-24T01:16:13.527Z,998.63
2016-10-24T01:16:35.305Z,998.59
2016-10-24T01:16:57.048Z,998.58
2016-10-24T01:17:18.809Z,998.59
2016-10-24T01:17:40.593Z,998.59
2016-10-24T01:18:02.420Z,998.61
2016-10-24T01:18:24.161Z,998.58
2016-10-24T01:18:45.935Z,998.64
2016-10-24T01:19:07.703Z,998.69
2016-10-24T01:19:29.470Z,998.68
2016-10-24T01:19:51.197Z,998.69
2016-10-24T01:20:13.044Z,998.66
2016-10-24T01:20:34.797Z,998.70
2016-10-24T01:20:56.531Z,998.75
2016-10-24T01:21:18.261Z,998.67
2016-10-24T01:21:40.053Z,998.72
2016-10-24T01:22:01.943Z,998.74
2016-10-24T01:22:23.689Z,998.75
2016-10-24T01:22:45.428Z,998.77
2016-10-24T01:23:07.185Z,998.73
2016-10-24T01:23:28.997Z,998.76
2016-10-24T01:23:50.726Z,998.72
2016-10-24T01:24:12.506Z,998.75
2016-10-24T01:24:34.225Z,998.69
2016-10-24T01:24:55.994Z,998.65
2016-10-24T01:25:20.421Z,998.59
2016-10-24T01:25:42.219Z,998.65
2016-10-24T01:26:03.995Z,998.58
2016-10-24T01:26:25.773Z,998.56
2016-10-24T01:26:47.576Z,998.58
2016-10-24T01:27:09.274Z,998.62
2016-10-24T01:27:30.994Z,998.60
2016-10-24T01:27:52.722Z,998.61
2016-10-24T01:28:14.440Z,998.67
2016-10-24T01:28:36.160Z,998.69
2016-10-24T01:28:57.883Z,998.69
2016-10-24T01:29:19.605Z,998.75
2016-10-24T01:29:41.483Z,998.68
2016-10-24T01:30:03.260Z,998.72
2016-10-24T01:30:24.964Z,998.78
2016-10-24T01:30:46.742Z,998.79
2016-10-24T01:31:08.555Z,998.80
2016-10-24T01:31:30.310Z,998.77
2016-10-24T01:31:52.072Z,998.82
2016-10-24T01:32:13.858Z,998.86
2016-10-24T01:32:35.614Z,998.82
2016-10-24T01:32:57.420Z,998.81
2016-10-24T01:33:19.136Z,998.79
2016-10-24T01:33:40.872Z,998.73
2016-10-24T01:34:02.640Z,998.76
2016-10-24T01:34:24.360Z,998.75
2016-10-24T01:34:46.083Z,998.72
2016-10-24T01:35:07.814Z,998.72
2016-10-24T01:35:29.568Z,998.70
2016-10-24T01:35:51.317Z,998.72
2016-10-24T01:36:13.052Z,998.73
2016-10-24T01:36:34.806Z,998.74
2016-10-24T01:36:56.609Z,998.77
2016-10-24T01:37:18.359Z,998.80
2016-10-24T01:37:40.139Z,998.77
2016-10-24T01:38:01.870Z,998.71
2016-10-24T01:38:23.613Z,998.73
2016-10-24T01:38:45.349Z,998.76
2016-10-24T01:39:07.347Z,998.78
2016-10-24T01:39:29.081Z,998.81
2016-10-24T01:39:50.803Z,998.74
2016-10-24T01:40:12.524Z,998.77
2016-10-24T01:40:34.344Z,998.75
2016-10-24T01:40:56.148Z,998.72
2016-10-24T01:41:17.878Z,998.76
2016-10-24T01:41:39.702Z,998.70
2016-10-24T01:42:01.543Z,998.69
2016-10-24T01:42:23.277Z,998.75
2016-10-24T01:42:45.015Z,998.72
2016-10-24T01:43:06.750Z,998.77
2016-10-24T01:43:31.347Z,998.75
2016-10-24T01:43:53.109Z,998.73
2016-10-24T01:44:14.844Z,998.74
2016-10-24T01:44:36.668Z,998.76
2016-10-24T01:44:58.413Z,998.78
2016-10-24T01:45:20.137Z,998.79
2016-10-24T01:45:46.628Z,998.69
2016-10-24T01:46:08.367Z,998.68
2016-10-24T01:46:30.134Z,998.64
2016-10-24T01:46:51.876Z,998.60
2016-10-24T01:47:13.602Z,998.56
2016-10-24T01:47:35.348Z,998.52
2016-10-24T01:47:57.178Z,998.60
2016-10-24T01:48:18.915Z,998.50
2016-10-24T01:48:43.576Z,998.49
2016-10-24T01:49:05.311Z,998.54
2016-10-24T01:49:27.100Z,998.52
2016-10-24T01:49:48.886Z,998.58
2016-10-24T01:50:10.694Z,998.51
2016-10-24T01:50:58.918Z,998.47
2016-10-24T01:51:20.630Z,998.57
2016-10-24T01:51:42.377Z,998.48
2016-10-24T01:52:04.104Z,998.58
2016-10-24T01:52:25.822Z,998.55
2016-10-24T01:52:47.587Z,998.55
2016-10-24T01:53:09.313Z,998.52
2016-10-24T01:53:33.745Z,998.58
2016-10-24T01:53:55.487Z,998.60
2016-10-24T01:54:17.205Z,998.64
2016-10-24T01:54:38.959Z,998.65
2016-10-24T01:55:00.700Z,998.61
2016-10-24T01:55:22.469Z,998.64
2016-10-24T01:55:44.250Z,998.66
2016-10-24T01:56:06.004Z,998.66
2016-10-24T01:56:27.698Z,998.63
2016-10-24T01:56:49.486Z,998.63
2016-10-24T01:57:11.226Z,998.65
2016-10-24T01:57:33.081Z,998.62
2016-10-24T01:57:59.579Z,998.71
2016-10-24T01:58:21.383Z,998.68
2016-10-24T01:58:43.154Z,998.65
2016-10-24T01:59:04.878Z,998.69
2016-10-24T01:59:26.606Z,998.67
2016-10-24T01:59:48.370Z,998.72
2016-10-24T02:00:10.116Z,998.70
2016-10-24T02:00:31.834Z,998.67
2016-10-24T02:00:53.582Z,998.72
2016-10-24T02:01:15.311Z,998.73
2016-10-24T02:01:37.025Z,998.68
2016-10-24T02:01:58.745Z,998.66
2016-10-24T02:02:20.460Z,998.73
2016-10-24T02:02:42.282Z,998.72
2016-10-24T02:03:04.025Z,998.75
2016-10-24T02:03:25.764Z,998.73
2016-10-24T02:03:47.490Z,998.79
2016-10-24T02:04:09.197Z,998.74
2016-10-24T02:04:30.911Z,998.77
2016-10-24T02:04:52.628Z,998.80
2016-10-24T02:05:14.348Z,998.81
2016-10-24T02:05:36.099Z,998.79
2016-10-24T02:05:57.834Z,998.81
2016-10-24T02:06:19.607Z,998.81
2016-10-24T02:06:41.418Z,998.78
2016-10-24T02:07:03.156Z,998.80
2016-10-24T02:07:24.900Z,998.82
2016-10-24T02:07:46.651Z,998.79
2016-10-24T02:08:08.418Z,998.82
2016-10-24T02:08:30.201Z,998.78
2016-10-24T02:08:51.954Z,998.78
2016-10-24T02:09:13.683Z,998.76
2016-10-24T02:09:35.402Z,998.74
2016-10-24T02:09:57.148Z,998.78
2016-10-24T02:10:18.912Z,998.74
2016-10-24T02:10:40.639Z,998.77
2016-10-24T02:11:02.403Z,998.75
2016-10-24T02:11:24.124Z,998.71
2016-10-24T02:11:45.860Z,998.70
2016-10-24T02:12:07.590Z,998.76
2016-10-24T02:12:29.319Z,998.74
2016-10-24T02:12:51.119Z,998.80
2016-10-24T02:13:12.944Z,998.79
2016-10-24T02:13:34.677Z,998.77
2016-10-24T02:13:56.449Z,998.84
2016-10-24T02:14:18.197Z,998.82
2016-10-24T02:14:40.004Z,998.82
2016-10-24T02:15:01.717Z,998.80
2016-10-24T02:15:23.471Z,998.73
2016-10-24T02:15:45.197Z,998.70
2016-10-24T02:16:06.911Z,998.71
2016-10-24T02:16:28.647Z,998.68
2016-10-24T02:16:50.372Z,998.66
2016-10-24T02:17:16.866Z,998.66
2016-10-24T02:17:38.586Z,998.60
2016-10-24T02:18:00.315Z,998.61
2016-10-24T02:18:22.062Z,998.61
2016-10-24T02:18:43.805Z,998.61
2016-10-24T02:19:05.540Z,998.58
2016-10-24T02:19:27.277Z,998.61
2016-10-24T02:19:49.029Z,998.62
2016-10-24T02:20:10.854Z,998.65
2016-10-24T02:20:32.656Z,998.57
2016-10-24T02:20:59.178Z,998.57
2016-10-24T02:21:20.954Z,998.61
2016-10-24T02:21:47.443Z,998.62
2016-10-24T02:22:09.211Z,998.55
2016-10-24T02:22:30.933Z,998.58
2016-10-24T02:22:52.728Z,998.52
2016-10-24T02:23:14.466Z,998.53
2016-10-24T02:23:36.247Z,998.48
2016-10-24T02:23:57.979Z,998.49
2016-10-24T02:24:19.745Z,998.46
2016-10-24T02:24:41.535Z,998.48
2016-10-24T02:25:03.297Z,998.54
2016-10-24T02:25:25.031Z,998.55
2016-10-24T02:25:46.764Z,998.46
2016-10-24T02:26:08.496Z,998.49
2016-10-24T02:26:30.284Z,998.48
2016-10-24T02:26:52.054Z,998.43
2016-10-24T02:27:13.926Z,998.44
2016-10-24T02:27:35.662Z,998.41
2016-10-24T02:27:57.429Z,998.45
2016-10-24T02:28:19.234Z,998.46
2016-10-24T02:28:41.082Z,998.40
2016-10-24T02:29:02.819Z,998.45
2016-10-24T02:29:24.543Z,998.43
2016-10-24T02:29:46.281Z,998.44
2016-10-24T02:30:08.093Z,998.46
2016-10-24T02:30:29.851Z,998.45
2016-10-24T02:30:51.573Z,998.42
2016-10-24T02:31:13.336Z,998.36
2016-10-24T02:31:35.067Z,998.31
2016-10-24T02:31:56.802Z,998.39
2016-10-24T02:32:18.516Z,998.38
2016-10-24T02:32:40.242Z,998.35
2016-10-24T02:33:02.016Z,998.34
2016-10-24T02:33:23.728Z,998.36
2016-10-24T02:33:45.447Z,998.34
2016-10-24T02:34:07.170Z,998.37
2016-10-24T02:34:28.889Z,998.34
2016-10-24T02:34:55.378Z,998.38
2016-10-24T02:35:17.108Z,998.41
2016-10-24T02:35:38.846Z,998.40
2016-10-24T02:36:00.580Z,998.34
2016-10-24T02:36:22.324Z,998.38
2016-10-24T02:36:44.060Z,998.31
2016-10-24T02:37:05.802Z,998.32
2016-10-24T02:37:27.545Z,998.27
2016-10-24T02:37:49.260Z,998.27
2016-10-24T02:38:11.019Z,998.22
2016-10-24T02:38:32.759Z,998.18
2016-10-24T02:38:54.489Z,998.23
2016-10-24T02:39:16.205Z,998.14
2016-10-24T02:39:37.964Z,998.11
2016-10-24T02:39:59.687Z,998.17
2016-10-24T02:40:21.513Z,998.11
2016-10-24T02:40:43.251Z,998.09
2016-10-24T02:41:04.987Z,998.10
2016-10-24T02:41:26.719Z,998.01
2016-10-24T02:41:48.482Z,998.03
2016-10-24T02:42:10.261Z,997.99
2016-10-24T02:42:31.986Z,998.01
2016-10-24T02:42:53.705Z,998.07
2016-10-24T02:43:15.505Z,998.08
2016-10-24T02:43:37.239Z,998.15
2016-10-24T02:43:59.119Z,998.09
2016-10-24T02:44:23.549Z,998.17
2016-10-24T02:44:45.292Z,998.25
2016-10-24T02:45:07.036Z,998.30
2016-10-24T02:45:28.814Z,998.32
2016-10-24T02:45:50.594Z,998.34
2016-10-24T02:46:12.365Z,998.46
2016-10-24T02:46:34.185Z,998.50
2016-10-24T02:46:55.913Z,998.45
2016-10-24T02:47:17.682Z,998.56
2016-10-24T02:47:39.401Z,998.59
2016-10-24T02:48:01.152Z,998.58
2016-10-24T02:48:22.883Z,998.61
2016-10-24T02:48:44.605Z,998.61
2016-10-24T02:49:06.333Z,998.62
2016-10-24T02:49:28.163Z,998.65
2016-10-24T02:49:49.924Z,998.73
2016-10-24T02:50:11.648Z,998.73
2016-10-24T02:50:33.385Z,998.64
2016-10-24T02:50:55.108Z,998.70
2016-10-24T02:51:16.860Z,998.76
2016-10-24T02:51:38.594Z,998.76
2016-10-24T02:52:00.351Z,998.76
2016-10-24T02:52:22.132Z,998.77
2016-10-24T02:52:43.905Z,998.80
2016-10-24T02:53:05.624Z,998.79
2016-10-24T02:53:27.348Z,998.76
2016-10-24T02:53:49.066Z,998.76
2016-10-24T02:54:10.788Z,998.71
2016-10-24T02:54:32.540Z,998.72
2016-10-24T02:54:54.280Z,998.75
2016-10-24T02:55:16.015Z,998.69
2016-10-24T02:55:37.782Z,998.75
2016-10-24T02:55:59.517Z,998.68
2016-10-24T02:56:21.259Z,998.65
2016-10-24T02:56:43.023Z,998.61
2016-10-24T02:57:04.757Z,998.65
2016-10-24T02:57:31.253Z,998.63
2016-10-24T02:57:53.071Z,998.62
2016-10-24T02:58:14.807Z,998.59
2016-10-24T02:58:36.540Z,998.65
2016-10-24T02:59:01.171Z,998.65
2016-10-24T02:59:23.002Z,998.69
2016-10-24T02:59:44.724Z,998.69
2016-10-24T03:00:06.458Z,998.68
2016-10-24T03:00:28.207Z,998.70
2016-10-24T03:00:49.936Z,998.71
2016-10-24T03:01:11.687Z,998.71
2016-10-24T03:01:33.469Z,998.66
2016-10-24T03:01:55.183Z,998.72
2016-10-24T03:02:16.917Z,998.65
2016-10-24T03:02:38.639Z,998.61
2016-10-24T03:03:00.366Z,998.61
2016-10-24T03:03:22.092Z,998.63
2016-10-24T03:03:43.836Z,998.64
2016-10-24T03:04:05.648Z,998.64
2016-10-24T03:04:27.376Z,998.62
2016-10-24T03:04:49.127Z,998.67
2016-10-24T03:05:10.869Z,998.66
2016-10-24T03:05:32.596Z,998.69
2016-10-24T03:05:54.369Z,998.70
2016-10-24T03:06:16.112Z,998.68
2016-10-24T03:06:37.894Z,998.74
2016-10-24T03:06:59.615Z,998.68
2016-10-24T03:07:21.405Z,998.67
2016-10-24T03:07:43.144Z,998.67
2016-10-24T03:08:04.875Z,998.68
2016-10-24T03:08:26.772Z,998.69
2016-10-24T03:08:48.530Z,998.61
2016-10-24T03:09:10.274Z,998.63
2016-10-24T03:09:32.034Z,998.66
2016-10-24T03:09:53.783Z,998.66
2016-10-24T03:10:15.540Z,998.63
2016-10-24T03:10:37.307Z,998.62
2016-10-24T03:10:59.079Z,998.57
2016-10-24T03:11:20.815Z,998.63
2016-10-24T03:11:42.693Z,998.61
2016-10-24T03:12:04.435Z,998.62
2016-10-24T03:12:26.222Z,998.62
2016-10-24T03:12:47.989Z,998.66
2016-10-24T03:13:09.706Z,998.64
2016-10-24T03:13:31.483Z,998.76
2016-10-24T03:13:53.227Z,998.74
2016-10-24T03:14:14.956Z,998.76
2016-10-24T03:14:36.684Z,998.73
2016-10-24T03:14:58.448Z,998.78
2016-10-24T03:15:20.220Z,998.84
2016-10-24T03:15:41.993Z,998.78
2016-10-24T03:16:03.756Z,998.85
2016-10-24T03:16:25.496Z,998.90
2016-10-24T03:16:47.226Z,998.86
2016-10-24T03:17:35.511Z,998.90
2016-10-24T03:17:57.269Z,998.84
2016-10-24T03:18:19.016Z,998.81
2016-10-24T03:18:40.777Z,998.82
2016-10-24T03:19:02.510Z,998.77
2016-10-24T03:19:24.244Z,998.76
2016-10-24T03:19:45.996Z,998.72
2016-10-24T03:20:07.761Z,998.64
2016-10-24T03:20:29.497Z,998.56
2016-10-24T03:20:51.315Z,998.59
2016-10-24T03:21:13.071Z,998.56
2016-10-24T03:21:34.789Z,998.69
2016-10-24T03:21:56.517Z,998.54
2016-10-24T03:22:18.230Z,998.55
2016-10-24T03:22:39.962Z,998.49
2016-10-24T03:23:04.395Z,998.53
2016-10-24T03:23:26.116Z,998.52
2016-10-24T03:23:47.852Z,998.52
2016-10-24T03:24:09.609Z,998.52
2016-10-24T03:24:31.381Z,998.54
2016-10-24T03:24:53.097Z,998.55
2016-10-24T03:25:14.849Z,998.62
2016-10-24T03:25:36.581Z,998.65
2016-10-24T03:25:58.302Z,998.70
2016-10-24T03:26:20.033Z,998.67
2016-10-24T03:26:41.757Z,998.60
2016-10-24T03:27:03.473Z,998.61
2016-10-24T03:27:25.195Z,998.57
2016-10-24T03:27:46.925Z,998.47
2016-10-24T03:28:08.653Z,998.46
2016-10-24T03:28:30.448Z,998.42
2016-10-24T03:28:52.165Z,998.41
2016-10-24T03:29:13.889Z,998.42
2016-10-24T03:29:35.610Z,998.36
2016-10-24T03:29:57.338Z,998.31
2016-10-24T03:30:19.059Z,998.29
2016-10-24T03:30:40.790Z,998.37
2016-10-24T03:31:02.499Z,998.34
2016-10-24T03:31:24.221Z,998.37
2016-10-24T03:31:45.949Z,998.34
2016-10-24T03:32:07.662Z,998.43
2016-10-24T03:32:29.381Z,998.44
2016-10-24T03:32:51.102Z,998.47
2016-10-24T03:33:12.824Z,998.46
2016-10-24T03:33:34.557Z,998.49
2016-10-24T03:33:56.284Z,998.51
2016-10-24T03:34:18.012Z,998.48
2016-10-24T03:34:39.725Z,998.51
2016-10-24T03:35:01.450Z,998.52
2016-10-24T03:35:23.195Z,998.51
2016-10-24T03:35:44.909Z,998.55
2016-10-24T03:36:11.422Z,998.58
2016-10-24T03:36:33.165Z,998.48
2016-10-24T03:36:54.918Z,998.50
2016-10-24T03:37:16.702Z,998.49
2016-10-24T03:37:38.444Z,998.49
2016-10-24T03:38:00.183Z,998.45
2016-10-24T03:38:21.957Z,998.47
2016-10-24T03:38:43.691Z,998.56
2016-10-24T03:39:05.414Z,998.45
2016-10-24T03:39:27.159Z,998.47
2016-10-24T03:39:48.880Z,998.49
2016-10-24T03:40:10.597Z,998.46
2016-10-24T03:40:32.322Z,998.44
2016-10-24T03:40:54.058Z,998.41
2016-10-24T03:41:15.797Z,998.41
2016-10-24T03:41:37.524Z,998.38
2016-10-24T03:41:59.245Z,998.39
2016-10-24T03:42:20.973Z,998.31
2016-10-24T03:42:42.716Z,998.31
2016-10-24T03:43:04.452Z,998.29
2016-10-24T03:43:26.172Z,998.32
2016-10-24T03:43:47.889Z,998.32
2016-10-24T03:44:09.616Z,998.25
2016-10-24T03:44:31.365Z,998.27
2016-10-24T03:44:53.082Z,998.27
2016-10-24T03:45:14.839Z,998.23
2016-10-24T03:45:36.664Z,998.23
2016-10-24T03:45:58.547Z,998.23
2016-10-24T03:46:20.270Z,998.28
2016-10-24T03:46:42.029Z,998.25
2016-10-24T03:47:03.804Z,998.24
2016-10-24T03:47:25.541Z,998.21
2016-10-24T03:47:47.258Z,998.14
2016-10-24T03:48:08.973Z,998.22
2016-10-24T03:48:30.704Z,998.16
2016-10-24T03:48:52.426Z,998.26
2016-10-24T03:49:14.176Z,998.17
2016-10-24T03:49:35.917Z,998.27
2016-10-24T03:49:57.686Z,998.27
2016-10-24T03:50:19.418Z,998.26
2016-10-24T03:50:41.139Z,998.36
2016-10-24T03:51:02.857Z,998.36
2016-10-24T03:51:24.579Z,998.39
2016-10-24T03:51:51.165Z,998.37
2016-10-24T03:52:12.886Z,998.35
2016-10-24T03:52:34.620Z,998.47
2016-10-24T03:52:56.355Z,998.39
2016-10-24T03:53:18.108Z,998.39
2016-10-24T03:53:39.837Z,998.36
2016-10-24T03:54:01.691Z,998.38
2016-10-24T03:54:23.453Z,998.32
2016-10-24T03:54:45.211Z,998.37
2016-10-24T03:55:06.958Z,998.38
2016-10-24T03:55:28.698Z,998.35
2016-10-24T03:55:50.436Z,998.33
2016-10-24T03:56:12.156Z,998.35
2016-10-24T03:56:33.907Z,998.33
2016-10-24T03:56:55.655Z,998.26
2016-10-24T03:57:17.440Z,998.29
2016-10-24T03:57:39.167Z,998.29
2016-10-24T03:58:00.926Z,998.26
2016-10-24T03:58:22.719Z,998.33
2016-10-24T03:58:44.473Z,998.26
2016-10-24T03:59:06.247Z,998.22
2016-10-24T03:59:28.061Z,998.22
2016-10-24T03:59:49.791Z,998.21
2016-10-24T04:00:11.531Z,998.16
2016-10-24T04:00:33.300Z,998.15
2016-10-24T04:00:55.048Z,998.12
2016-10-24T04:01:16.789Z,998.11
2016-10-24T04:01:38.509Z,998.06
2016-10-24T04:02:00.227Z,998.10
2016-10-24T04:02:21.983Z,998.00
2016-10-24T04:02:43.771Z,998.05
2016-10-24T04:03:05.504Z,997.99
2016-10-24T04:03:27.239Z,997.98
2016-10-24T04:03:51.437Z,997.91
2016-10-24T04:04:13.168Z,997.93
2016-10-24T04:04:34.899Z,997.82
2016-10-24T04:04:56.640Z,997.83
2016-10-24T04:05:23.140Z,997.82
2016-10-24T04:05:44.895Z,997.81
2016-10-24T04:06:06.627Z,997.72
2016-10-24T04:06:28.363Z,997.73
2016-10-24T04:06:50.122Z,997.71
2016-10-24T04:07:11.853Z,997.67
2016-10-24T04:07:33.582Z,997.69
2016-10-24T04:07:55.352Z,997.71
2016-10-24T04:08:17.077Z,997.70
2016-10-24T04:08:38.803Z,997.69
2016-10-24T04:09:00.549Z,997.72
2016-10-24T04:09:22.340Z,997.70
2016-10-24T04:09:44.075Z,997.74
2016-10-24T04:10:05.803Z,997.74
2016-10-24T04:10:27.562Z,997.69
2016-10-24T04:10:49.344Z,997.75
2016-10-24T04:11:11.064Z,997.76
2016-10-24T04:11:32.785Z,997.76
2016-10-24T04:11:54.539Z,997.78
2016-10-24T04:12:16.263Z,997.82
2016-10-24T04:12:38.028Z,997.76
2016-10-24T04:12:59.767Z,997.73
2016-10-24T04:13:21.511Z,997.78
2016-10-24T04:13:43.238Z,997.74
2016-10-24T04:14:04.980Z,997.79
2016-10-24T04:14:26.718Z,997.82
2016-10-24T04:14:48.451Z,997.77
2016-10-24T04:15:10.180Z,997.83
2016-10-24T04:15:31.981Z,997.76
2016-10-24T04:15:53.712Z,997.74
2016-10-24T04:16:15.439Z,997.84
2016-10-24T04:16:37.163Z,997.78
2016-10-24T04:16:58.893Z,997.81
2016-10-24T04:17:20.618Z,997.88
2016-10-24T04:17:42.337Z,997.81
2016-10-24T04:18:04.093Z,997.86
2016-10-24T04:18:25.830Z,997.85
2016-10-24T04:18:47.564Z,997.83
2016-10-24T04:19:09.297Z,997.83
2016-10-24T04:19:31.016Z,997.85
2016-10-24T04:19:52.738Z,997.84
2016-10-24T04:20:14.473Z,997.86
2016-10-24T04:20:36.249Z,997.85
2016-10-24T04:20:58.011Z,997.92
2016-10-24T04:21:19.737Z,997.88
2016-10-24T04:21:41.485Z,997.88
2016-10-24T04:22:03.235Z,997.89
2016-10-24T04:22:29.741Z,997.88
2016-10-24T04:22:51.473Z,997.90
2016-10-24T04:23:13.238Z,997.83
2016-10-24T04:23:34.993Z,997.87
2016-10-24T04:24:24.277Z,997.83
2016-10-24T04:24:46.060Z,997.85
2016-10-24T04:25:07.861Z,997.93
2016-10-24T04:25:29.630Z,997.98
2016-10-24T04:25:51.350Z,997.99
2016-10-24T04:26:13.358Z,998.00
2016-10-24T04:26:35.253Z,997.98
2016-10-24T04:26:57.024Z,997.98
2016-10-24T04:27:45.507Z,997.98
2016-10-24T04:28:07.217Z,997.96
2016-10-24T04:28:28.934Z,998.01
2016-10-24T04:28:50.674Z,997.98
2016-10-24T04:29:12.391Z,997.98
2016-10-24T04:29:34.133Z,997.97
2016-10-24T04:30:27.099Z,997.96
2016-10-24T04:30:48.822Z,997.89
2016-10-24T04:31:10.569Z,997.94
2016-10-24T04:31:32.293Z,998.00
2016-10-24T04:31:54.021Z,997.98
2016-10-24T04:32:15.742Z,998.01
2016-10-24T04:32:37.480Z,997.99
2016-10-24T04:32:59.217Z,998.09
2016-10-24T04:33:21.061Z,998.08
2016-10-24T04:33:42.817Z,998.07
2016-10-24T04:34:04.723Z,998.02
2016-10-24T04:34:26.527Z,998.01
2016-10-24T04:34:48.280Z,998.01
2016-10-24T04:35:10.014Z,998.02
2016-10-24T04:35:31.754Z,998.05